LFBPLFMP

Guest
Details From LFBP - Pau Pyrenees
To LFMP - Rivesaltes
Flight Number -
Tags generated
Created
Modified
Stats Distance 150 nm / 277 km
Max Altitude 500 ft / 152 m
Waypoints 3
Social Downloads 0
Likes 0
Share VATSIM

Download

Looking for another format? Having issues loading an existing format? Contact us
Advertisement - Login to hide

Notes

Basic altitude profile: - Ascent Rate: 80ft/min - Ascent Speed: 250kts - Cruise Altitude: 10000ft - Cruise Speed: 420kts - Descent Rate: 80ft/min - Descent Speed: 250kts

Route

LFBP GAI57 LFMP

ID Type Via Altitude Latitude Longitude Leg Dist Tot Dist Heading (true) Name
O LFBP APT - 0 ft / 0 m 43.38108˚ -0.42075˚ - 0 nm - Pau Pyrenees
GAI57 FIX - 500 ft / 152 m 43.00000˚ 1.93611˚ 105 nm 105 nm 102° / 103° -
O LFMP APT - 0 ft / 0 m 42.74049˚ 2.87059˚ 43 nm 149 nm 110° / 111° Rivesaltes

Altitude Profile

Advertisement - Login to hide

LFBP

Details ICAO LFBP (PUF)
Name Pau Pyrenees
Region France
Timezone Europe/Paris (UTC+2.0)
Stats Elevation 616 ft / 188 m (AMSL)
Location 43.381078° -0.420752°
Runways 1
Magnetic Variation 0.146° E

METAR

LFBP 201830Z AUTO VRB03KT 9999 FEW060/// BKN092/// BKN120/// ///TCU 22/11 Q1013 BECMG SCT050

Decode

TAF

TAF LFBP 201700Z 2018/2118 VRB02KT 9999 SCT050 BECMG 2100/2102 12005KT BECMG 2115/2117 26010KT PROB40 TEMPO 2110/2118 4000 SHRA BKN035TCU PROB30 TEMPO 2110/2117 4000 TSRA BKN030CB

Decode

Departure Runways

ID Width Length Bearing (true) Bearing (mag) Surface Threshold Offset Overrun Length
13 148 ft / 45 m 8,191 ft / 2,497 m 125.89° 125.74° Asphalt 0 ft / 0 m 0 ft / 0 m
31 148 ft / 45 m 8,191 ft / 2,497 m 305.90° 305.75° Asphalt 0 ft / 0 m 0 ft / 0 m

LFMP

Details ICAO LFMP (PGF)
Name Rivesaltes
Region France
Timezone Europe/Paris (UTC+2.0)
Stats Elevation 143 ft / 44 m (AMSL)
Location 42.740488° 2.870594°
Runways 2
Magnetic Variation 1.040° E

METAR

LFMP 201830Z AUTO 29004KT 230V320 CAVOK 20/13 Q1013 NOSIG

Decode

TAF

TAF LFMP 201400Z 2015/2115 VRB03KT 9999 SCT070 TEMPO 2015/2018 SHRA SCT040TCU PROB40 TEMPO 2015/2018 TS SCT030CB BECMG 2022/2024 09010KT TEMPO 2101/2108 2000 BR

Decode

Destination Runways

ID Width Length Bearing (true) Bearing (mag) Surface Threshold Offset Overrun Length
13 66 ft / 20 m 4,231 ft / 1,290 m 127.54° 126.50° Asphalt 492 ft / 150 m 0 ft / 0 m
15 148 ft / 45 m 8,189 ft / 2,496 m 148.38° 147.34° Asphalt 0 ft / 0 m 230 ft / 70 m
31 66 ft / 20 m 4,231 ft / 1,290 m 307.55° 306.51° Asphalt 1,148 ft / 350 m 0 ft / 0 m
33 148 ft / 45 m 8,189 ft / 2,496 m 328.39° 327.35° Asphalt 558 ft / 170 m 230 ft / 70 m

Approach Navaids

Runway Type Ident Frequency Range Bearing (true) Bearing (mag) Slope Elevation
33 Localiser PL 111.75 MHz 18 nm / 33 km 328.30° 327.26° - 124 ft / 38 m (AMSL)
33 Glidescope PL 111.75 MHz 10 nm / 19 km 328.38° 327.34° 3.00° 124 ft / 38 m (AMSL)
33 DME PL 111.75 MHz 18 nm / 33 km - - - 183 ft / 56 m (AMSL)

Popular Alternatives